sensor_id;sensor_type;location;lat;lon;timestamp;P1;durP1;ratioP1;P2;durP2;ratioP2
4971;SDS011;2501;51.214;6.768;2022-12-19T00:01:31;64.75;;;31.83;;
4971;SDS011;2501;51.214;6.768;2022-12-19T00:04:02;72.50;;;31.40;;
4971;SDS011;2501;51.214;6.768;2022-12-19T00:06:31;66.75;;;31.75;;
4971;SDS011;2501;51.214;6.768;2022-12-19T00:09:03;73.28;;;33.25;;
4971;SDS011;2501;51.214;6.768;2022-12-19T00:11:32;71.75;;;34.63;;
4971;SDS011;2501;51.214;6.768;2022-12-19T00:14:00;66.65;;;32.05;;
4971;SDS011;2501;51.214;6.768;2022-12-19T00:16:29;72.93;;;32.58;;
4971;SDS011;2501;51.214;6.768;2022-12-19T00:18:58;71.53;;;31.98;;
4971;SDS011;2501;51.214;6.768;2022-12-19T00:21:28;71.35;;;32.83;;
4971;SDS011;2501;51.214;6.768;2022-12-19T00:23:58;65.20;;;31.05;;
4971;SDS011;2501;51.214;6.768;2022-12-19T00:26:30;71.10;;;35.03;;
4971;SDS011;2501;51.214;6.768;2022-12-19T00:29:00;65.07;;;31.77;;
4971;SDS011;2501;51.214;6.768;2022-12-19T00:31:31;63.83;;;31.70;;
4971;SDS011;2501;51.214;6.768;2022-12-19T00:34:00;61.90;;;30.90;;
4971;SDS011;2501;51.214;6.768;2022-12-19T00:36:29;68.45;;;33.63;;
4971;SDS011;2501;51.214;6.768;2022-12-19T00:39:00;72.32;;;31.95;;
4971;SDS011;2501;51.214;6.768;2022-12-19T00:41:32;66.45;;;30.38;;
4971;SDS011;2501;51.214;6.768;2022-12-19T00:44:03;68.43;;;31.83;;
4971;SDS011;2501;51.214;6.768;2022-12-19T00:46:33;63.22;;;30.30;;
4971;SDS011;2501;51.214;6.768;2022-12-19T00:49:02;67.25;;;30.38;;
4971;SDS011;2501;51.214;6.768;2022-12-19T00:51:32;63.83;;;30.33;;
4971;SDS011;2501;51.214;6.768;2022-12-19T00:54:02;61.47;;;31.08;;
4971;SDS011;2501;51.214;6.768;2022-12-19T00:56:34;62.67;;;30.25;;
4971;SDS011;2501;51.214;6.768;2022-12-19T00:59:03;66.07;;;30.98;;
4971;SDS011;2501;51.214;6.768;2022-12-19T01:01:33;61.35;;;30.42;;
4971;SDS011;2501;51.214;6.768;2022-12-19T01:04:04;67.47;;;30.50;;
4971;SDS011;2501;51.214;6.768;2022-12-19T01:06:34;65.85;;;30.85;;
4971;SDS011;2501;51.214;6.768;2022-12-19T01:09:02;66.75;;;32.08;;
4971;SDS011;2501;51.214;6.768;2022-12-19T01:11:31;72.05;;;31.25;;
4971;SDS011;2501;51.214;6.768;2022-12-19T01:14:14;70.00;;;32.35;;
4971;SDS011;2501;51.214;6.768;2022-12-19T01:16:43;70.80;;;32.22;;
4971;SDS011;2501;51.214;6.768;2022-12-19T01:19:11;74.67;;;33.13;;
4971;SDS011;2501;51.214;6.768;2022-12-19T01:21:39;66.70;;;31.65;;
4971;SDS011;2501;51.214;6.768;2022-12-19T01:24:08;72.20;;;32.03;;
4971;SDS011;2501;51.214;6.768;2022-12-19T01:26:39;72.05;;;32.63;;
4971;SDS011;2501;51.214;6.768;2022-12-19T01:29:07;68.60;;;30.90;;
4971;SDS011;2501;51.214;6.768;2022-12-19T01:31:36;64.70;;;31.08;;
4971;SDS011;2501;51.214;6.768;2022-12-19T01:34:04;68.40;;;32.38;;
4971;SDS011;2501;51.214;6.768;2022-12-19T01:36:32;66.38;;;31.45;;
4971;SDS011;2501;51.214;6.768;2022-12-19T01:39:01;67.53;;;32.20;;
4971;SDS011;2501;51.214;6.768;2022-12-19T01:41:29;66.40;;;31.13;;
4971;SDS011;2501;51.214;6.768;2022-12-19T01:44:01;63.70;;;30.58;;
4971;SDS011;2501;51.214;6.768;2022-12-19T01:46:36;64.20;;;30.02;;
4971;SDS011;2501;51.214;6.768;2022-12-19T01:49:10;59.25;;;30.55;;
4971;SDS011;2501;51.214;6.768;2022-12-19T01:51:43;60.58;;;30.95;;
4971;SDS011;2501;51.214;6.768;2022-12-19T01:54:16;65.63;;;31.15;;
4971;SDS011;2501;51.214;6.768;2022-12-19T01:56:48;64.95;;;29.60;;
4971;SDS011;2501;51.214;6.768;2022-12-19T01:59:21;66.50;;;30.60;;
4971;SDS011;2501;51.214;6.768;2022-12-19T02:01:56;67.60;;;30.80;;
4971;SDS011;2501;51.214;6.768;2022-12-19T02:04:29;61.90;;;30.65;;
4971;SDS011;2501;51.214;6.768;2022-12-19T02:06:58;66.88;;;31.05;;
4971;SDS011;2501;51.214;6.768;2022-12-19T02:09:28;67.03;;;31.95;;
4971;SDS011;2501;51.214;6.768;2022-12-19T02:11:57;64.70;;;29.73;;
4971;SDS011;2501;51.214;6.768;2022-12-19T02:14:29;66.75;;;29.92;;
4971;SDS011;2501;51.214;6.768;2022-12-19T02:16:58;63.65;;;28.98;;
4971;SDS011;2501;51.214;6.768;2022-12-19T02:19:53;66.80;;;31.70;;
4971;SDS011;2501;51.214;6.768;2022-12-19T02:22:44;63.00;;;32.20;;
4971;SDS011;2501;51.214;6.768;2022-12-19T02:25:31;65.47;;;30.63;;
4971;SDS011;2501;51.214;6.768;2022-12-19T02:28:26;65.85;;;30.13;;
4971;SDS011;2501;51.214;6.768;2022-12-19T02:31:10;61.72;;;29.58;;
4971;SDS011;2501;51.214;6.768;2022-12-19T02:33:48;58.63;;;28.60;;
4971;SDS011;2501;51.214;6.768;2022-12-19T02:36:24;65.55;;;30.08;;
4971;SDS011;2501;51.214;6.768;2022-12-19T02:38:56;59.83;;;29.33;;
4971;SDS011;2501;51.214;6.768;2022-12-19T02:41:28;58.70;;;28.63;;
4971;SDS011;2501;51.214;6.768;2022-12-19T02:44:07;58.88;;;27.77;;
4971;SDS011;2501;51.214;6.768;2022-12-19T02:46:41;59.28;;;27.80;;
4971;SDS011;2501;51.214;6.768;2022-12-19T02:49:11;59.40;;;26.90;;
4971;SDS011;2501;51.214;6.768;2022-12-19T02:51:41;56.42;;;28.58;;
4971;SDS011;2501;51.214;6.768;2022-12-19T02:54:09;57.95;;;27.67;;
4971;SDS011;2501;51.214;6.768;2022-12-19T02:56:40;53.88;;;27.10;;
4971;SDS011;2501;51.214;6.768;2022-12-19T02:59:17;57.97;;;28.57;;
4971;SDS011;2501;51.214;6.768;2022-12-19T03:02:02;56.70;;;27.58;;
4971;SDS011;2501;51.214;6.768;2022-12-19T03:04:38;55.10;;;28.27;;
4971;SDS011;2501;51.214;6.768;2022-12-19T03:07:12;61.08;;;28.30;;
4971;SDS011;2501;51.214;6.768;2022-12-19T03:09:50;57.43;;;28.30;;
4971;SDS011;2501;51.214;6.768;2022-12-19T03:12:25;61.75;;;29.30;;
4971;SDS011;2501;51.214;6.768;2022-12-19T03:14:59;58.63;;;28.25;;
4971;SDS011;2501;51.214;6.768;2022-12-19T03:17:31;57.07;;;27.90;;
4971;SDS011;2501;51.214;6.768;2022-12-19T03:20:04;62.58;;;29.25;;
4971;SDS011;2501;51.214;6.768;2022-12-19T03:22:37;57.73;;;28.10;;
4971;SDS011;2501;51.214;6.768;2022-12-19T03:25:06;52.85;;;28.25;;
4971;SDS011;2501;51.214;6.768;2022-12-19T03:27:35;60.78;;;28.75;;
4971;SDS011;2501;51.214;6.768;2022-12-19T03:30:10;55.83;;;28.92;;
4971;SDS011;2501;51.214;6.768;2022-12-19T03:32:42;59.90;;;28.57;;
4971;SDS011;2501;51.214;6.768;2022-12-19T03:35:15;60.13;;;28.42;;
4971;SDS011;2501;51.214;6.768;2022-12-19T03:37:47;61.20;;;28.93;;
4971;SDS011;2501;51.214;6.768;2022-12-19T03:40:19;57.20;;;28.80;;
4971;SDS011;2501;51.214;6.768;2022-12-19T03:42:52;57.25;;;28.35;;
4971;SDS011;2501;51.214;6.768;2022-12-19T03:45:36;58.95;;;28.38;;
4971;SDS011;2501;51.214;6.768;2022-12-19T03:48:15;57.20;;;29.25;;
4971;SDS011;2501;51.214;6.768;2022-12-19T03:50:51;60.83;;;29.50;;
4971;SDS011;2501;51.214;6.768;2022-12-19T03:53:39;59.90;;;28.20;;
4971;SDS011;2501;51.214;6.768;2022-12-19T03:56:16;60.20;;;28.67;;
4971;SDS011;2501;51.214;6.768;2022-12-19T03:58:57;63.00;;;28.40;;
4971;SDS011;2501;51.214;6.768;2022-12-19T04:01:29;58.10;;;29.40;;
4971;SDS011;2501;51.214;6.768;2022-12-19T04:04:03;59.90;;;29.20;;
4971;SDS011;2501;51.214;6.768;2022-12-19T04:06:33;69.82;;;31.48;;
4971;SDS011;2501;51.214;6.768;2022-12-19T04:09:02;66.78;;;30.60;;
4971;SDS011;2501;51.214;6.768;2022-12-19T04:11:33;72.57;;;32.88;;
4971;SDS011;2501;51.214;6.768;2022-12-19T04:14:06;73.63;;;31.90;;
4971;SDS011;2501;51.214;6.768;2022-12-19T04:16:38;74.00;;;32.03;;
4971;SDS011;2501;51.214;6.768;2022-12-19T04:19:17;76.13;;;33.97;;
4971;SDS011;2501;51.214;6.768;2022-12-19T04:21:51;73.97;;;32.72;;
4971;SDS011;2501;51.214;6.768;2022-12-19T04:24:25;76.60;;;34.95;;
4971;SDS011;2501;51.214;6.768;2022-12-19T04:26:57;67.07;;;33.33;;
4971;SDS011;2501;51.214;6.768;2022-12-19T04:29:29;78.93;;;34.25;;
4971;SDS011;2501;51.214;6.768;2022-12-19T04:32:00;74.82;;;33.05;;
4971;SDS011;2501;51.214;6.768;2022-12-19T04:34:32;71.68;;;32.72;;
4971;SDS011;2501;51.214;6.768;2022-12-19T04:37:01;74.88;;;33.50;;
4971;SDS011;2501;51.214;6.768;2022-12-19T04:39:30;72.93;;;34.33;;
4971;SDS011;2501;51.214;6.768;2022-12-19T04:41:59;80.63;;;34.17;;
4971;SDS011;2501;51.214;6.768;2022-12-19T04:44:27;84.28;;;35.30;;
4971;SDS011;2501;51.214;6.768;2022-12-19T04:46:55;82.33;;;36.27;;
4971;SDS011;2501;51.214;6.768;2022-12-19T04:49:24;73.32;;;33.42;;
4971;SDS011;2501;51.214;6.768;2022-12-19T04:51:55;80.55;;;34.97;;
4971;SDS011;2501;51.214;6.768;2022-12-19T04:54:23;76.25;;;33.75;;
4971;SDS011;2501;51.214;6.768;2022-12-19T04:56:52;80.77;;;34.40;;
4971;SDS011;2501;51.214;6.768;2022-12-19T04:59:20;73.35;;;34.10;;
4971;SDS011;2501;51.214;6.768;2022-12-19T05:01:49;73.90;;;33.63;;
4971;SDS011;2501;51.214;6.768;2022-12-19T05:04:17;84.05;;;36.28;;
4971;SDS011;2501;51.214;6.768;2022-12-19T05:06:46;74.00;;;33.50;;
4971;SDS011;2501;51.214;6.768;2022-12-19T05:09:17;71.13;;;33.08;;
4971;SDS011;2501;51.214;6.768;2022-12-19T05:11:45;78.53;;;34.60;;
4971;SDS011;2501;51.214;6.768;2022-12-19T05:14:14;75.00;;;33.92;;
4971;SDS011;2501;51.214;6.768;2022-12-19T05:16:42;90.35;;;36.75;;
4971;SDS011;2501;51.214;6.768;2022-12-19T05:19:11;76.10;;;35.30;;
4971;SDS011;2501;51.214;6.768;2022-12-19T05:21:39;87.05;;;37.35;;
4971;SDS011;2501;51.214;6.768;2022-12-19T05:24:08;85.10;;;35.85;;
4971;SDS011;2501;51.214;6.768;2022-12-19T05:26:39;83.40;;;34.73;;
4971;SDS011;2501;51.214;6.768;2022-12-19T05:29:07;83.00;;;35.70;;
4971;SDS011;2501;51.214;6.768;2022-12-19T05:31:36;86.00;;;37.25;;
4971;SDS011;2501;51.214;6.768;2022-12-19T05:34:04;86.30;;;36.88;;
4971;SDS011;2501;51.214;6.768;2022-12-19T05:36:32;85.35;;;38.25;;
4971;SDS011;2501;51.214;6.768;2022-12-19T05:39:01;92.82;;;37.00;;
4971;SDS011;2501;51.214;6.768;2022-12-19T05:41:29;92.53;;;39.15;;
4971;SDS011;2501;51.214;6.768;2022-12-19T05:44:00;101.07;;;40.23;;
4971;SDS011;2501;51.214;6.768;2022-12-19T05:46:29;90.97;;;38.25;;
4971;SDS011;2501;51.214;6.768;2022-12-19T05:48:57;90.35;;;37.58;;
4971;SDS011;2501;51.214;6.768;2022-12-19T05:51:26;98.35;;;39.30;;
4971;SDS011;2501;51.214;6.768;2022-12-19T05:53:54;90.53;;;38.97;;
4971;SDS011;2501;51.214;6.768;2022-12-19T05:56:23;102.30;;;41.92;;
4971;SDS011;2501;51.214;6.768;2022-12-19T05:58:51;99.57;;;39.85;;
4971;SDS011;2501;51.214;6.768;2022-12-19T06:01:23;105.03;;;41.60;;
4971;SDS011;2501;51.214;6.768;2022-12-19T06:03:53;97.75;;;38.60;;
4971;SDS011;2501;51.214;6.768;2022-12-19T06:06:22;97.88;;;39.55;;
4971;SDS011;2501;51.214;6.768;2022-12-19T06:08:53;99.90;;;40.33;;
4971;SDS011;2501;51.214;6.768;2022-12-19T06:11:22;100.55;;;40.20;;
4971;SDS011;2501;51.214;6.768;2022-12-19T06:13:51;101.93;;;40.78;;
4971;SDS011;2501;51.214;6.768;2022-12-19T06:16:22;99.72;;;40.42;;
4971;SDS011;2501;51.214;6.768;2022-12-19T06:18:51;92.00;;;38.78;;
4971;SDS011;2501;51.214;6.768;2022-12-19T06:21:20;96.75;;;39.58;;
4971;SDS011;2501;51.214;6.768;2022-12-19T06:23:49;100.35;;;40.17;;
4971;SDS011;2501;51.214;6.768;2022-12-19T06:26:18;99.77;;;39.23;;
4971;SDS011;2501;51.214;6.768;2022-12-19T06:28:48;98.47;;;38.17;;
4971;SDS011;2501;51.214;6.768;2022-12-19T06:31:18;94.53;;;37.25;;
4971;SDS011;2501;51.214;6.768;2022-12-19T06:33:50;96.95;;;38.30;;
4971;SDS011;2501;51.214;6.768;2022-12-19T06:36:20;89.20;;;37.20;;
4971;SDS011;2501;51.214;6.768;2022-12-19T06:38:50;81.53;;;36.53;;
4971;SDS011;2501;51.214;6.768;2022-12-19T06:41:20;88.80;;;37.60;;
4971;SDS011;2501;51.214;6.768;2022-12-19T06:44:10;89.57;;;36.83;;
4971;SDS011;2501;51.214;6.768;2022-12-19T06:46:40;88.50;;;38.10;;
4971;SDS011;2501;51.214;6.768;2022-12-19T06:49:11;83.30;;;36.50;;
4971;SDS011;2501;51.214;6.768;2022-12-19T06:51:42;88.93;;;36.28;;
4971;SDS011;2501;51.214;6.768;2022-12-19T06:54:10;87.95;;;37.63;;
4971;SDS011;2501;51.214;6.768;2022-12-19T06:56:40;79.60;;;36.65;;
4971;SDS011;2501;51.214;6.768;2022-12-19T06:59:11;81.20;;;35.90;;
4971;SDS011;2501;51.214;6.768;2022-12-19T07:01:45;83.17;;;35.33;;
4971;SDS011;2501;51.214;6.768;2022-12-19T07:04:25;76.90;;;33.67;;
4971;SDS011;2501;51.214;6.768;2022-12-19T07:06:57;77.97;;;33.90;;
4971;SDS011;2501;51.214;6.768;2022-12-19T07:09:26;74.28;;;34.03;;
4971;SDS011;2501;51.214;6.768;2022-12-19T07:11:57;82.82;;;33.35;;
4971;SDS011;2501;51.214;6.768;2022-12-19T07:14:25;75.72;;;31.73;;
4971;SDS011;2501;51.214;6.768;2022-12-19T07:16:54;71.05;;;31.58;;
4971;SDS011;2501;51.214;6.768;2022-12-19T07:19:30;75.40;;;33.38;;
4971;SDS011;2501;51.214;6.768;2022-12-19T07:22:00;77.03;;;33.97;;
4971;SDS011;2501;51.214;6.768;2022-12-19T07:24:30;69.17;;;31.03;;
4971;SDS011;2501;51.214;6.768;2022-12-19T07:27:01;69.80;;;33.10;;
4971;SDS011;2501;51.214;6.768;2022-12-19T07:29:29;69.18;;;32.47;;
4971;SDS011;2501;51.214;6.768;2022-12-19T07:31:58;72.80;;;30.73;;
4971;SDS011;2501;51.214;6.768;2022-12-19T07:34:26;71.70;;;31.27;;
4971;SDS011;2501;51.214;6.768;2022-12-19T07:36:57;67.85;;;31.45;;
4971;SDS011;2501;51.214;6.768;2022-12-19T07:39:25;67.32;;;30.77;;
4971;SDS011;2501;51.214;6.768;2022-12-19T07:41:54;69.18;;;29.40;;
4971;SDS011;2501;51.214;6.768;2022-12-19T07:44:22;67.10;;;30.10;;
4971;SDS011;2501;51.214;6.768;2022-12-19T07:46:51;60.55;;;29.83;;
4971;SDS011;2501;51.214;6.768;2022-12-19T07:49:19;66.97;;;29.40;;
4971;SDS011;2501;51.214;6.768;2022-12-19T07:51:48;62.00;;;30.00;;
4971;SDS011;2501;51.214;6.768;2022-12-19T07:54:19;61.50;;;29.85;;
4971;SDS011;2501;51.214;6.768;2022-12-19T07:56:47;70.82;;;30.48;;
4971;SDS011;2501;51.214;6.768;2022-12-19T07:59:16;65.13;;;30.88;;
4971;SDS011;2501;51.214;6.768;2022-12-19T08:01:44;72.15;;;31.77;;
4971;SDS011;2501;51.214;6.768;2022-12-19T08:04:12;73.65;;;32.47;;
4971;SDS011;2501;51.214;6.768;2022-12-19T08:06:41;65.70;;;30.58;;
4971;SDS011;2501;51.214;6.768;2022-12-19T08:09:10;64.38;;;30.58;;
4971;SDS011;2501;51.214;6.768;2022-12-19T08:11:42;65.22;;;31.15;;
4971;SDS011;2501;51.214;6.768;2022-12-19T08:14:10;68.88;;;30.58;;
4971;SDS011;2501;51.214;6.768;2022-12-19T08:16:38;69.40;;;32.50;;
4971;SDS011;2501;51.214;6.768;2022-12-19T08:19:07;63.65;;;32.38;;
4971;SDS011;2501;51.214;6.768;2022-12-19T08:21:36;66.20;;;31.47;;
4971;SDS011;2501;51.214;6.768;2022-12-19T08:24:04;67.43;;;32.35;;
4971;SDS011;2501;51.214;6.768;2022-12-19T08:26:33;69.07;;;33.30;;
4971;SDS011;2501;51.214;6.768;2022-12-19T08:29:04;68.93;;;33.08;;
4971;SDS011;2501;51.214;6.768;2022-12-19T08:31:33;63.35;;;31.55;;
4971;SDS011;2501;51.214;6.768;2022-12-19T08:34:02;67.28;;;31.38;;
4971;SDS011;2501;51.214;6.768;2022-12-19T08:36:30;64.57;;;30.60;;
4971;SDS011;2501;51.214;6.768;2022-12-19T08:38:59;66.90;;;30.17;;
4971;SDS011;2501;51.214;6.768;2022-12-19T08:41:27;62.28;;;29.40;;
4971;SDS011;2501;51.214;6.768;2022-12-19T08:43:55;63.10;;;30.38;;
4971;SDS011;2501;51.214;6.768;2022-12-19T08:46:27;63.13;;;30.27;;
4971;SDS011;2501;51.214;6.768;2022-12-19T08:48:55;61.08;;;30.73;;
4971;SDS011;2501;51.214;6.768;2022-12-19T08:51:40;61.15;;;30.67;;
4971;SDS011;2501;51.214;6.768;2022-12-19T08:54:08;57.95;;;29.38;;
4971;SDS011;2501;51.214;6.768;2022-12-19T08:56:37;64.73;;;30.57;;
4971;SDS011;2501;51.214;6.768;2022-12-19T08:59:06;68.45;;;30.35;;
4971;SDS011;2501;51.214;6.768;2022-12-19T09:01:37;67.50;;;29.87;;
4971;SDS011;2501;51.214;6.768;2022-12-19T09:04:05;62.78;;;29.30;;
4971;SDS011;2501;51.214;6.768;2022-12-19T09:06:34;61.58;;;31.17;;
4971;SDS011;2501;51.214;6.768;2022-12-19T09:09:02;58.78;;;27.95;;
4971;SDS011;2501;51.214;6.768;2022-12-19T09:11:31;57.20;;;28.38;;
4971;SDS011;2501;51.214;6.768;2022-12-19T09:14:00;59.97;;;29.55;;
4971;SDS011;2501;51.214;6.768;2022-12-19T09:16:29;60.72;;;30.83;;
4971;SDS011;2501;51.214;6.768;2022-12-19T09:19:00;59.20;;;29.35;;
4971;SDS011;2501;51.214;6.768;2022-12-19T09:21:28;66.70;;;31.35;;
4971;SDS011;2501;51.214;6.768;2022-12-19T09:23:57;56.67;;;28.63;;
4971;SDS011;2501;51.214;6.768;2022-12-19T09:26:28;59.47;;;28.17;;
4971;SDS011;2501;51.214;6.768;2022-12-19T09:28:56;63.33;;;29.77;;
4971;SDS011;2501;51.214;6.768;2022-12-19T09:31:25;54.05;;;27.02;;
4971;SDS011;2501;51.214;6.768;2022-12-19T09:33:53;60.80;;;30.27;;
4971;SDS011;2501;51.214;6.768;2022-12-19T09:36:24;59.73;;;29.13;;
4971;SDS011;2501;51.214;6.768;2022-12-19T09:38:53;58.00;;;28.83;;
4971;SDS011;2501;51.214;6.768;2022-12-19T09:44:28;53.75;;;26.60;;
4971;SDS011;2501;51.214;6.768;2022-12-19T09:47:09;59.83;;;28.83;;
4971;SDS011;2501;51.214;6.768;2022-12-19T09:49:40;56.70;;;28.67;;
4971;SDS011;2501;51.214;6.768;2022-12-19T09:52:14;60.60;;;29.85;;
4971;SDS011;2501;51.214;6.768;2022-12-19T09:54:46;52.05;;;28.17;;
4971;SDS011;2501;51.214;6.768;2022-12-19T09:57:25;47.88;;;26.30;;
4971;SDS011;2501;51.214;6.768;2022-12-19T10:00:04;56.90;;;27.33;;
4971;SDS011;2501;51.214;6.768;2022-12-19T10:02:37;66.47;;;32.55;;
4971;SDS011;2501;51.214;6.768;2022-12-19T10:05:13;57.88;;;27.80;;
4971;SDS011;2501;51.214;6.768;2022-12-19T10:07:47;52.28;;;26.77;;
4971;SDS011;2501;51.214;6.768;2022-12-19T10:10:17;54.55;;;27.00;;
4971;SDS011;2501;51.214;6.768;2022-12-19T10:13:01;49.38;;;26.10;;
4971;SDS011;2501;51.214;6.768;2022-12-19T10:15:39;52.55;;;26.42;;
4971;SDS011;2501;51.214;6.768;2022-12-19T10:18:22;50.53;;;26.58;;
4971;SDS011;2501;51.214;6.768;2022-12-19T10:21:01;53.90;;;26.88;;
4971;SDS011;2501;51.214;6.768;2022-12-19T10:23:48;53.80;;;27.08;;
4971;SDS011;2501;51.214;6.768;2022-12-19T10:26:28;58.35;;;27.70;;
4971;SDS011;2501;51.214;6.768;2022-12-19T10:29:18;57.33;;;27.17;;
4971;SDS011;2501;51.214;6.768;2022-12-19T10:31:57;54.28;;;26.77;;
4971;SDS011;2501;51.214;6.768;2022-12-19T10:34:32;55.15;;;27.85;;
4971;SDS011;2501;51.214;6.768;2022-12-19T10:37:07;56.15;;;28.83;;
4971;SDS011;2501;51.214;6.768;2022-12-19T10:39:50;50.92;;;26.83;;
4971;SDS011;2501;51.214;6.768;2022-12-19T10:42:30;54.70;;;27.77;;
4971;SDS011;2501;51.214;6.768;2022-12-19T10:45:05;48.83;;;25.60;;
4971;SDS011;2501;51.214;6.768;2022-12-19T10:47:40;46.63;;;24.48;;
4971;SDS011;2501;51.214;6.768;2022-12-19T10:50:10;50.17;;;25.13;;
4971;SDS011;2501;51.214;6.768;2022-12-19T10:52:45;49.50;;;25.67;;
4971;SDS011;2501;51.214;6.768;2022-12-19T10:55:26;51.45;;;24.88;;
4971;SDS011;2501;51.214;6.768;2022-12-19T10:58:10;48.95;;;25.75;;
4971;SDS011;2501;51.214;6.768;2022-12-19T11:01:09;44.83;;;24.48;;
4971;SDS011;2501;51.214;6.768;2022-12-19T11:03:41;49.55;;;25.05;;
4971;SDS011;2501;51.214;6.768;2022-12-19T11:09:19;47.70;;;23.60;;
4971;SDS011;2501;51.214;6.768;2022-12-19T11:12:00;45.43;;;24.67;;
4971;SDS011;2501;51.214;6.768;2022-12-19T11:14:38;50.80;;;24.23;;
4971;SDS011;2501;51.214;6.768;2022-12-19T11:17:25;40.33;;;23.08;;
4971;SDS011;2501;51.214;6.768;2022-12-19T11:20:12;41.00;;;23.05;;
4971;SDS011;2501;51.214;6.768;2022-12-19T11:22:47;41.38;;;23.60;;
4971;SDS011;2501;51.214;6.768;2022-12-19T11:25:21;44.60;;;22.80;;
4971;SDS011;2501;51.214;6.768;2022-12-19T11:28:02;40.90;;;22.58;;
4971;SDS011;2501;51.214;6.768;2022-12-19T11:30:31;43.58;;;24.38;;
4971;SDS011;2501;51.214;6.768;2022-12-19T11:33:06;39.95;;;22.52;;
4971;SDS011;2501;51.214;6.768;2022-12-19T11:35:47;42.70;;;22.50;;
4971;SDS011;2501;51.214;6.768;2022-12-19T11:38:17;45.17;;;22.95;;
4971;SDS011;2501;51.214;6.768;2022-12-19T11:40:50;45.33;;;23.80;;
4971;SDS011;2501;51.214;6.768;2022-12-19T11:43:26;38.88;;;22.35;;
4971;SDS011;2501;51.214;6.768;2022-12-19T11:46:03;44.00;;;23.55;;
4971;SDS011;2501;51.214;6.768;2022-12-19T11:48:37;43.78;;;23.30;;
4971;SDS011;2501;51.214;6.768;2022-12-19T11:51:16;42.47;;;22.83;;
4971;SDS011;2501;51.214;6.768;2022-12-19T11:53:52;40.22;;;22.48;;
4971;SDS011;2501;51.214;6.768;2022-12-19T11:56:29;44.17;;;22.92;;
4971;SDS011;2501;51.214;6.768;2022-12-19T11:59:01;41.97;;;22.30;;
4971;SDS011;2501;51.214;6.768;2022-12-19T12:01:43;41.42;;;21.95;;
4971;SDS011;2501;51.214;6.768;2022-12-19T12:07:17;44.80;;;22.40;;
4971;SDS011;2501;51.214;6.768;2022-12-19T12:09:47;43.55;;;22.58;;
4971;SDS011;2501;51.214;6.768;2022-12-19T12:12:21;40.37;;;21.40;;
4971;SDS011;2501;51.214;6.768;2022-12-19T12:15:02;38.13;;;21.35;;
4971;SDS011;2501;51.214;6.768;2022-12-19T12:17:50;41.37;;;21.93;;
4971;SDS011;2501;51.214;6.768;2022-12-19T12:20:28;38.07;;;22.13;;
4971;SDS011;2501;51.214;6.768;2022-12-19T12:23:12;45.10;;;21.77;;
4971;SDS011;2501;51.214;6.768;2022-12-19T12:26:00;42.92;;;22.88;;
4971;SDS011;2501;51.214;6.768;2022-12-19T12:28:45;41.95;;;22.45;;
4971;SDS011;2501;51.214;6.768;2022-12-19T12:31:30;41.60;;;22.35;;
4971;SDS011;2501;51.214;6.768;2022-12-19T12:34:10;36.50;;;21.13;;
4971;SDS011;2501;51.214;6.768;2022-12-19T12:37:02;40.42;;;20.90;;
4971;SDS011;2501;51.214;6.768;2022-12-19T12:39:42;42.08;;;22.67;;
4971;SDS011;2501;51.214;6.768;2022-12-19T12:42:22;41.90;;;22.55;;
4971;SDS011;2501;51.214;6.768;2022-12-19T12:45:07;43.03;;;22.30;;
4971;SDS011;2501;51.214;6.768;2022-12-19T12:47:49;41.15;;;21.27;;
4971;SDS011;2501;51.214;6.768;2022-12-19T12:50:20;46.65;;;21.90;;
4971;SDS011;2501;51.214;6.768;2022-12-19T12:52:51;41.33;;;21.02;;
4971;SDS011;2501;51.214;6.768;2022-12-19T12:55:24;44.28;;;22.92;;
4971;SDS011;2501;51.214;6.768;2022-12-19T12:57:54;45.58;;;23.50;;
4971;SDS011;2501;51.214;6.768;2022-12-19T13:00:23;43.77;;;22.37;;
4971;SDS011;2501;51.214;6.768;2022-12-19T13:03:01;41.50;;;21.43;;
4971;SDS011;2501;51.214;6.768;2022-12-19T13:05:39;43.63;;;22.65;;
4971;SDS011;2501;51.214;6.768;2022-12-19T13:08:24;43.78;;;22.90;;
4971;SDS011;2501;51.214;6.768;2022-12-19T13:11:04;34.78;;;20.05;;
4971;SDS011;2501;51.214;6.768;2022-12-19T13:13:47;36.38;;;20.23;;
4971;SDS011;2501;51.214;6.768;2022-12-19T13:19:16;40.08;;;21.30;;
4971;SDS011;2501;51.214;6.768;2022-12-19T13:22:08;36.33;;;20.08;;
4971;SDS011;2501;51.214;6.768;2022-12-19T13:24:43;38.08;;;19.95;;
4971;SDS011;2501;51.214;6.768;2022-12-19T13:30:17;33.92;;;20.00;;
4971;SDS011;2501;51.214;6.768;2022-12-19T13:35:37;35.60;;;20.50;;
4971;SDS011;2501;51.214;6.768;2022-12-19T13:38:19;40.50;;;21.00;;
4971;SDS011;2501;51.214;6.768;2022-12-19T13:40:54;39.13;;;20.80;;
4971;SDS011;2501;51.214;6.768;2022-12-19T13:43:47;36.57;;;20.13;;
4971;SDS011;2501;51.214;6.768;2022-12-19T13:46:21;37.58;;;20.70;;
4971;SDS011;2501;51.214;6.768;2022-12-19T13:48:55;39.92;;;20.52;;
4971;SDS011;2501;51.214;6.768;2022-12-19T13:51:36;39.83;;;20.08;;
4971;SDS011;2501;51.214;6.768;2022-12-19T13:54:19;34.83;;;19.20;;
4971;SDS011;2501;51.214;6.768;2022-12-19T13:56:50;41.05;;;19.50;;
4971;SDS011;2501;51.214;6.768;2022-12-19T13:59:19;37.55;;;21.63;;
4971;SDS011;2501;51.214;6.768;2022-12-19T14:01:50;36.28;;;20.23;;
4971;SDS011;2501;51.214;6.768;2022-12-19T14:04:24;37.83;;;20.45;;
4971;SDS011;2501;51.214;6.768;2022-12-19T14:06:59;37.72;;;19.85;;
4971;SDS011;2501;51.214;6.768;2022-12-19T14:09:31;38.10;;;20.58;;
4971;SDS011;2501;51.214;6.768;2022-12-19T14:12:05;38.03;;;21.67;;
4971;SDS011;2501;51.214;6.768;2022-12-19T14:14:59;36.77;;;20.53;;
4971;SDS011;2501;51.214;6.768;2022-12-19T14:17:40;36.22;;;19.73;;
4971;SDS011;2501;51.214;6.768;2022-12-19T14:20:18;35.80;;;19.05;;
4971;SDS011;2501;51.214;6.768;2022-12-19T14:22:51;34.65;;;17.75;;
4971;SDS011;2501;51.214;6.768;2022-12-19T14:25:23;33.55;;;19.17;;
4971;SDS011;2501;51.214;6.768;2022-12-19T14:28:00;33.88;;;17.40;;
4971;SDS011;2501;51.214;6.768;2022-12-19T14:30:33;40.00;;;19.08;;
4971;SDS011;2501;51.214;6.768;2022-12-19T14:33:05;34.03;;;17.10;;
4971;SDS011;2501;51.214;6.768;2022-12-19T14:35:37;28.83;;;17.40;;
4971;SDS011;2501;51.214;6.768;2022-12-19T14:38:14;30.42;;;17.20;;
4971;SDS011;2501;51.214;6.768;2022-12-19T14:40:45;30.85;;;18.67;;
4971;SDS011;2501;51.214;6.768;2022-12-19T14:43:14;32.00;;;17.97;;
4971;SDS011;2501;51.214;6.768;2022-12-19T14:46:09;34.58;;;18.92;;
4971;SDS011;2501;51.214;6.768;2022-12-19T14:48:45;35.27;;;20.20;;
4971;SDS011;2501;51.214;6.768;2022-12-19T14:51:19;59.58;;;31.38;;
4971;SDS011;2501;51.214;6.768;2022-12-19T14:54:06;33.30;;;18.92;;
4971;SDS011;2501;51.214;6.768;2022-12-19T14:56:44;34.25;;;17.92;;
4971;SDS011;2501;51.214;6.768;2022-12-19T14:59:18;25.70;;;16.63;;
4971;SDS011;2501;51.214;6.768;2022-12-19T15:01:57;31.05;;;17.02;;
4971;SDS011;2501;51.214;6.768;2022-12-19T15:04:29;28.63;;;17.10;;
4971;SDS011;2501;51.214;6.768;2022-12-19T15:07:00;31.95;;;17.25;;
4971;SDS011;2501;51.214;6.768;2022-12-19T15:09:36;29.27;;;15.77;;
4971;SDS011;2501;51.214;6.768;2022-12-19T15:12:11;29.40;;;17.33;;
4971;SDS011;2501;51.214;6.768;2022-12-19T15:14:59;30.85;;;17.55;;
4971;SDS011;2501;51.214;6.768;2022-12-19T15:17:29;26.60;;;15.93;;
4971;SDS011;2501;51.214;6.768;2022-12-19T15:19:58;27.00;;;16.00;;
4971;SDS011;2501;51.214;6.768;2022-12-19T15:22:26;29.07;;;15.87;;
4971;SDS011;2501;51.214;6.768;2022-12-19T15:24:57;27.83;;;15.27;;
4971;SDS011;2501;51.214;6.768;2022-12-19T15:27:26;26.98;;;14.00;;
4971;SDS011;2501;51.214;6.768;2022-12-19T15:29:54;27.10;;;14.82;;
4971;SDS011;2501;51.214;6.768;2022-12-19T15:32:24;24.23;;;14.55;;
4971;SDS011;2501;51.214;6.768;2022-12-19T15:34:53;23.23;;;13.60;;
4971;SDS011;2501;51.214;6.768;2022-12-19T15:37:21;23.63;;;13.70;;
4971;SDS011;2501;51.214;6.768;2022-12-19T15:39:49;22.00;;;14.20;;
4971;SDS011;2501;51.214;6.768;2022-12-19T15:42:22;28.30;;;14.18;;